sensor_id;sensor_type;location;lat;lon;timestamp;P1;durP1;ratioP1;P2;durP2;ratioP2
22794;SDS011;11564;50.920;11.612;2023-01-20T00:01:27;6.53;;;5.47;;
22794;SDS011;11564;50.920;11.612;2023-01-20T00:03:54;6.20;;;4.77;;
22794;SDS011;11564;50.920;11.612;2023-01-20T00:06:20;4.90;;;4.40;;
22794;SDS011;11564;50.920;11.612;2023-01-20T00:08:50;7.97;;;6.77;;
22794;SDS011;11564;50.920;11.612;2023-01-20T00:11:16;6.97;;;5.17;;
22794;SDS011;11564;50.920;11.612;2023-01-20T00:13:42;6.07;;;5.47;;
22794;SDS011;11564;50.920;11.612;2023-01-20T00:16:08;7.83;;;5.63;;
22794;SDS011;11564;50.920;11.612;2023-01-20T00:18:35;8.43;;;4.80;;
22794;SDS011;11564;50.920;11.612;2023-01-20T00:21:06;5.57;;;5.03;;
22794;SDS011;11564;50.920;11.612;2023-01-20T00:23:34;4.70;;;4.10;;
22794;SDS011;11564;50.920;11.612;2023-01-20T00:26:03;5.43;;;4.23;;
22794;SDS011;11564;50.920;11.612;2023-01-20T00:28:30;4.80;;;4.30;;
22794;SDS011;11564;50.920;11.612;2023-01-20T00:30:56;4.83;;;4.33;;
22794;SDS011;11564;50.920;11.612;2023-01-20T00:33:21;5.40;;;4.90;;
22794;SDS011;11564;50.920;11.612;2023-01-20T00:35:47;7.03;;;5.33;;
22794;SDS011;11564;50.920;11.612;2023-01-20T00:38:12;5.10;;;4.50;;
22794;SDS011;11564;50.920;11.612;2023-01-20T00:40:39;4.67;;;4.27;;
22794;SDS011;11564;50.920;11.612;2023-01-20T00:43:04;9.27;;;5.23;;
22794;SDS011;11564;50.920;11.612;2023-01-20T00:45:30;5.90;;;4.63;;
22794;SDS011;11564;50.920;11.612;2023-01-20T00:47:56;7.27;;;5.83;;
22794;SDS011;11564;50.920;11.612;2023-01-20T00:50:21;9.83;;;5.23;;
22794;SDS011;11564;50.920;11.612;2023-01-20T00:52:47;5.30;;;4.90;;
22794;SDS011;11564;50.920;11.612;2023-01-20T00:55:12;5.90;;;5.30;;
22794;SDS011;11564;50.920;11.612;2023-01-20T00:57:38;6.30;;;5.70;;
22794;SDS011;11564;50.920;11.612;2023-01-20T01:00:04;5.70;;;4.63;;
22794;SDS011;11564;50.920;11.612;2023-01-20T01:02:30;5.53;;;5.13;;
22794;SDS011;11564;50.920;11.612;2023-01-20T01:04:55;5.40;;;4.90;;
22794;SDS011;11564;50.920;11.612;2023-01-20T01:07:21;5.83;;;5.10;;
22794;SDS011;11564;50.920;11.612;2023-01-20T01:09:47;6.63;;;5.80;;
22794;SDS011;11564;50.920;11.612;2023-01-20T01:12:12;8.10;;;5.83;;
22794;SDS011;11564;50.920;11.612;2023-01-20T01:14:38;8.07;;;5.83;;
22794;SDS011;11564;50.920;11.612;2023-01-20T01:17:03;9.40;;;5.70;;
22794;SDS011;11564;50.920;11.612;2023-01-20T01:19:29;6.30;;;5.70;;
22794;SDS011;11564;50.920;11.612;2023-01-20T01:21:55;5.97;;;5.37;;
22794;SDS011;11564;50.920;11.612;2023-01-20T01:24:20;6.20;;;5.20;;
22794;SDS011;11564;50.920;11.612;2023-01-20T01:26:46;6.80;;;5.93;;
22794;SDS011;11564;50.920;11.612;2023-01-20T01:29:11;7.07;;;6.27;;
22794;SDS011;11564;50.920;11.612;2023-01-20T01:31:37;11.53;;;7.47;;
22794;SDS011;11564;50.920;11.612;2023-01-20T01:34:03;6.60;;;5.87;;
22794;SDS011;11564;50.920;11.612;2023-01-20T01:36:28;9.67;;;5.70;;
22794;SDS011;11564;50.920;11.612;2023-01-20T01:38:54;6.27;;;5.67;;
22794;SDS011;11564;50.920;11.612;2023-01-20T01:41:19;7.57;;;5.80;;
22794;SDS011;11564;50.920;11.612;2023-01-20T01:46:34;7.17;;;6.43;;
22794;SDS011;11564;50.920;11.612;2023-01-20T01:49:02;6.80;;;5.87;;
22794;SDS011;11564;50.920;11.612;2023-01-20T01:51:47;7.87;;;6.17;;
22794;SDS011;11564;50.920;11.612;2023-01-20T01:54:17;6.50;;;5.90;;
22794;SDS011;11564;50.920;11.612;2023-01-20T01:56:47;12.83;;;6.43;;
22794;SDS011;11564;50.920;11.612;2023-01-20T01:59:15;10.33;;;6.90;;
22794;SDS011;11564;50.920;11.612;2023-01-20T02:01:43;8.73;;;5.20;;
22794;SDS011;11564;50.920;11.612;2023-01-20T02:04:14;5.67;;;5.17;;
22794;SDS011;11564;50.920;11.612;2023-01-20T02:06:43;7.60;;;6.20;;
22794;SDS011;11564;50.920;11.612;2023-01-20T02:09:10;7.10;;;6.00;;
22794;SDS011;11564;50.920;11.612;2023-01-20T02:11:44;6.83;;;5.53;;
22794;SDS011;11564;50.920;11.612;2023-01-20T02:14:17;7.83;;;5.70;;
22794;SDS011;11564;50.920;11.612;2023-01-20T02:16:51;6.60;;;5.43;;
22794;SDS011;11564;50.920;11.612;2023-01-20T02:30:51;9.57;;;7.07;;
22794;SDS011;11564;50.920;11.612;2023-01-20T02:35:54;8.33;;;5.67;;
22794;SDS011;11564;50.920;11.612;2023-01-20T02:38:43;6.40;;;5.33;;
22794;SDS011;11564;50.920;11.612;2023-01-20T02:41:14;9.73;;;6.77;;
22794;SDS011;11564;50.920;11.612;2023-01-20T02:43:48;6.93;;;6.23;;
22794;SDS011;11564;50.920;11.612;2023-01-20T02:46:22;9.90;;;6.20;;
22794;SDS011;11564;50.920;11.612;2023-01-20T02:49:00;9.47;;;6.70;;
22794;SDS011;11564;50.920;11.612;2023-01-20T02:51:38;12.47;;;6.23;;
22794;SDS011;11564;50.920;11.612;2023-01-20T02:54:14;9.10;;;6.60;;
22794;SDS011;11564;50.920;11.612;2023-01-20T02:56:43;11.23;;;7.07;;
22794;SDS011;11564;50.920;11.612;2023-01-20T02:59:10;6.70;;;5.67;;
22794;SDS011;11564;50.920;11.612;2023-01-20T03:01:47;8.97;;;7.00;;
22794;SDS011;11564;50.920;11.612;2023-01-20T03:04:18;6.47;;;5.87;;
22794;SDS011;11564;50.920;11.612;2023-01-20T03:06:52;11.33;;;6.47;;
22794;SDS011;11564;50.920;11.612;2023-01-20T03:09:22;10.97;;;7.67;;
22794;SDS011;11564;50.920;11.612;2023-01-20T03:11:55;7.03;;;5.93;;
22794;SDS011;11564;50.920;11.612;2023-01-20T03:14:24;8.90;;;6.93;;
22794;SDS011;11564;50.920;11.612;2023-01-20T03:16:50;10.20;;;6.17;;
22794;SDS011;11564;50.920;11.612;2023-01-20T03:19:16;9.67;;;6.77;;
22794;SDS011;11564;50.920;11.612;2023-01-20T03:21:43;7.83;;;5.97;;
22794;SDS011;11564;50.920;11.612;2023-01-20T03:24:09;9.87;;;6.17;;
22794;SDS011;11564;50.920;11.612;2023-01-20T03:26:35;8.33;;;5.97;;
22794;SDS011;11564;50.920;11.612;2023-01-20T03:29:03;6.90;;;6.13;;
22794;SDS011;11564;50.920;11.612;2023-01-20T03:31:38;5.20;;;4.70;;
22794;SDS011;11564;50.920;11.612;2023-01-20T03:34:14;5.20;;;4.70;;
22794;SDS011;11564;50.920;11.612;2023-01-20T03:36:43;7.03;;;5.57;;
22794;SDS011;11564;50.920;11.612;2023-01-20T03:39:09;7.23;;;6.03;;
22794;SDS011;11564;50.920;11.612;2023-01-20T03:44:43;10.67;;;5.23;;
22794;SDS011;11564;50.920;11.612;2023-01-20T03:52:16;8.47;;;5.37;;
22794;SDS011;11564;50.920;11.612;2023-01-20T03:54:59;9.50;;;4.97;;
22794;SDS011;11564;50.920;11.612;2023-01-20T03:57:31;5.13;;;4.70;;
22794;SDS011;11564;50.920;11.612;2023-01-20T04:00:03;9.70;;;5.87;;
22794;SDS011;11564;50.920;11.612;2023-01-20T04:02:31;7.47;;;5.20;;
22794;SDS011;11564;50.920;11.612;2023-01-20T04:04:59;7.60;;;5.93;;
22794;SDS011;11564;50.920;11.612;2023-01-20T04:07:26;6.17;;;5.57;;
22794;SDS011;11564;50.920;11.612;2023-01-20T04:09:54;7.27;;;5.00;;
22794;SDS011;11564;50.920;11.612;2023-01-20T04:12:24;7.43;;;5.67;;
22794;SDS011;11564;50.920;11.612;2023-01-20T04:14:50;8.10;;;5.70;;
22794;SDS011;11564;50.920;11.612;2023-01-20T04:17:15;8.80;;;5.77;;
22794;SDS011;11564;50.920;11.612;2023-01-20T04:19:41;5.43;;;4.90;;
22794;SDS011;11564;50.920;11.612;2023-01-20T04:22:15;8.93;;;4.80;;
22794;SDS011;11564;50.920;11.612;2023-01-20T04:24:50;6.13;;;4.97;;
22794;SDS011;11564;50.920;11.612;2023-01-20T04:27:20;5.13;;;4.60;;
22794;SDS011;11564;50.920;11.612;2023-01-20T04:29:46;6.47;;;4.77;;
22794;SDS011;11564;50.920;11.612;2023-01-20T04:32:11;10.87;;;5.03;;
22794;SDS011;11564;50.920;11.612;2023-01-20T04:34:37;4.50;;;4.20;;
22794;SDS011;11564;50.920;11.612;2023-01-20T04:37:03;10.30;;;5.00;;
22794;SDS011;11564;50.920;11.612;2023-01-20T04:39:29;6.57;;;5.73;;
22794;SDS011;11564;50.920;11.612;2023-01-20T04:41:55;6.77;;;5.67;;
22794;SDS011;11564;50.920;11.612;2023-01-20T04:44:20;5.40;;;4.97;;
22794;SDS011;11564;50.920;11.612;2023-01-20T04:46:46;5.03;;;4.63;;
22794;SDS011;11564;50.920;11.612;2023-01-20T04:49:12;12.40;;;5.30;;
22794;SDS011;11564;50.920;11.612;2023-01-20T04:51:38;7.37;;;5.30;;
22794;SDS011;11564;50.920;11.612;2023-01-20T04:54:04;7.30;;;5.37;;
22794;SDS011;11564;50.920;11.612;2023-01-20T04:56:30;7.47;;;5.00;;
22794;SDS011;11564;50.920;11.612;2023-01-20T04:58:56;6.27;;;5.67;;
22794;SDS011;11564;50.920;11.612;2023-01-20T05:01:22;6.73;;;5.70;;
22794;SDS011;11564;50.920;11.612;2023-01-20T05:03:47;5.63;;;4.93;;
22794;SDS011;11564;50.920;11.612;2023-01-20T05:06:13;7.10;;;5.77;;
22794;SDS011;11564;50.920;11.612;2023-01-20T05:08:39;7.40;;;6.10;;
22794;SDS011;11564;50.920;11.612;2023-01-20T05:11:05;5.83;;;5.20;;
22794;SDS011;11564;50.920;11.612;2023-01-20T05:13:30;5.07;;;4.57;;
22794;SDS011;11564;50.920;11.612;2023-01-20T05:15:56;5.90;;;5.30;;
22794;SDS011;11564;50.920;11.612;2023-01-20T05:18:22;4.50;;;4.00;;
22794;SDS011;11564;50.920;11.612;2023-01-20T05:20:48;5.63;;;4.70;;
22794;SDS011;11564;50.920;11.612;2023-01-20T05:23:14;5.23;;;4.40;;
22794;SDS011;11564;50.920;11.612;2023-01-20T05:25:40;5.87;;;4.50;;
22794;SDS011;11564;50.920;11.612;2023-01-20T05:28:06;6.17;;;4.13;;
22794;SDS011;11564;50.920;11.612;2023-01-20T05:30:32;5.87;;;4.20;;
22794;SDS011;11564;50.920;11.612;2023-01-20T05:33:13;4.97;;;3.90;;
22794;SDS011;11564;50.920;11.612;2023-01-20T05:35:38;5.97;;;4.60;;
22794;SDS011;11564;50.920;11.612;2023-01-20T05:38:04;5.23;;;4.77;;
22794;SDS011;11564;50.920;11.612;2023-01-20T05:40:30;4.77;;;4.30;;
22794;SDS011;11564;50.920;11.612;2023-01-20T05:43:00;7.17;;;4.90;;
22794;SDS011;11564;50.920;11.612;2023-01-20T05:45:26;4.00;;;3.60;;
22794;SDS011;11564;50.920;11.612;2023-01-20T05:47:53;6.40;;;4.37;;
22794;SDS011;11564;50.920;11.612;2023-01-20T05:50:20;5.50;;;4.77;;
22794;SDS011;11564;50.920;11.612;2023-01-20T05:52:45;4.70;;;4.30;;
22794;SDS011;11564;50.920;11.612;2023-01-20T05:55:11;8.13;;;4.53;;
22794;SDS011;11564;50.920;11.612;2023-01-20T05:57:37;7.77;;;4.70;;
22794;SDS011;11564;50.920;11.612;2023-01-20T06:00:03;8.73;;;4.73;;
22794;SDS011;11564;50.920;11.612;2023-01-20T06:02:29;5.33;;;4.80;;
22794;SDS011;11564;50.920;11.612;2023-01-20T06:04:55;11.63;;;4.20;;
22794;SDS011;11564;50.920;11.612;2023-01-20T06:07:21;4.77;;;4.37;;
22794;SDS011;11564;50.920;11.612;2023-01-20T06:09:47;8.00;;;4.50;;
22794;SDS011;11564;50.920;11.612;2023-01-20T06:12:12;8.23;;;5.30;;
22794;SDS011;11564;50.920;11.612;2023-01-20T06:14:38;12.53;;;5.87;;
22794;SDS011;11564;50.920;11.612;2023-01-20T06:17:03;6.83;;;4.50;;
22794;SDS011;11564;50.920;11.612;2023-01-20T06:19:29;11.53;;;5.23;;
22794;SDS011;11564;50.920;11.612;2023-01-20T06:21:55;5.47;;;4.90;;
22794;SDS011;11564;50.920;11.612;2023-01-20T06:24:20;8.23;;;4.60;;
22794;SDS011;11564;50.920;11.612;2023-01-20T06:26:48;6.03;;;5.13;;
22794;SDS011;11564;50.920;11.612;2023-01-20T06:29:14;8.43;;;4.93;;
22794;SDS011;11564;50.920;11.612;2023-01-20T06:31:40;8.33;;;5.90;;
22794;SDS011;11564;50.920;11.612;2023-01-20T06:34:05;9.23;;;5.00;;
22794;SDS011;11564;50.920;11.612;2023-01-20T06:36:31;7.13;;;4.97;;
22794;SDS011;11564;50.920;11.612;2023-01-20T06:38:56;6.33;;;5.70;;
22794;SDS011;11564;50.920;11.612;2023-01-20T06:41:22;6.07;;;5.40;;
22794;SDS011;11564;50.920;11.612;2023-01-20T06:43:49;6.67;;;5.87;;
22794;SDS011;11564;50.920;11.612;2023-01-20T06:46:15;6.70;;;5.10;;
22794;SDS011;11564;50.920;11.612;2023-01-20T06:48:41;7.50;;;6.00;;
22794;SDS011;11564;50.920;11.612;2023-01-20T06:51:12;9.50;;;6.80;;
22794;SDS011;11564;50.920;11.612;2023-01-20T06:53:39;12.10;;;6.90;;
22794;SDS011;11564;50.920;11.612;2023-01-20T06:56:05;7.63;;;6.53;;
22794;SDS011;11564;50.920;11.612;2023-01-20T06:58:32;7.23;;;6.40;;
22794;SDS011;11564;50.920;11.612;2023-01-20T07:01:02;8.00;;;6.60;;
22794;SDS011;11564;50.920;11.612;2023-01-20T07:03:30;6.80;;;5.90;;
22794;SDS011;11564;50.920;11.612;2023-01-20T07:06:00;9.53;;;6.43;;
22794;SDS011;11564;50.920;11.612;2023-01-20T07:08:31;8.33;;;6.20;;
22794;SDS011;11564;50.920;11.612;2023-01-20T07:10:57;6.90;;;6.20;;
22794;SDS011;11564;50.920;11.612;2023-01-20T07:13:22;9.70;;;8.17;;
22794;SDS011;11564;50.920;11.612;2023-01-20T07:15:48;9.70;;;6.67;;
22794;SDS011;11564;50.920;11.612;2023-01-20T07:18:13;10.20;;;7.60;;
22794;SDS011;11564;50.920;11.612;2023-01-20T07:20:39;8.13;;;6.40;;
22794;SDS011;11564;50.920;11.612;2023-01-20T07:23:05;15.33;;;7.40;;
22794;SDS011;11564;50.920;11.612;2023-01-20T07:25:31;13.33;;;7.23;;
22794;SDS011;11564;50.920;11.612;2023-01-20T07:27:56;9.30;;;7.23;;
22794;SDS011;11564;50.920;11.612;2023-01-20T07:30:22;10.80;;;8.50;;
22794;SDS011;11564;50.920;11.612;2023-01-20T07:32:48;13.23;;;8.13;;
22794;SDS011;11564;50.920;11.612;2023-01-20T07:35:14;13.50;;;7.57;;
22794;SDS011;11564;50.920;11.612;2023-01-20T07:37:40;15.10;;;8.67;;
22794;SDS011;11564;50.920;11.612;2023-01-20T07:40:06;13.30;;;8.70;;
22794;SDS011;11564;50.920;11.612;2023-01-20T07:42:35;11.23;;;9.17;;
22794;SDS011;11564;50.920;11.612;2023-01-20T07:45:01;9.80;;;6.90;;
22794;SDS011;11564;50.920;11.612;2023-01-20T07:47:27;7.93;;;6.93;;
22794;SDS011;11564;50.920;11.612;2023-01-20T07:49:53;15.40;;;8.03;;
22794;SDS011;11564;50.920;11.612;2023-01-20T07:52:18;9.60;;;7.50;;
22794;SDS011;11564;50.920;11.612;2023-01-20T07:54:44;7.70;;;6.73;;
22794;SDS011;11564;50.920;11.612;2023-01-20T07:57:09;10.13;;;7.33;;
22794;SDS011;11564;50.920;11.612;2023-01-20T07:59:35;8.70;;;7.37;;
22794;SDS011;11564;50.920;11.612;2023-01-20T08:02:00;10.57;;;7.00;;
22794;SDS011;11564;50.920;11.612;2023-01-20T08:04:26;10.53;;;6.83;;
22794;SDS011;11564;50.920;11.612;2023-01-20T08:06:51;8.20;;;7.40;;
22794;SDS011;11564;50.920;11.612;2023-01-20T08:09:17;10.53;;;6.77;;
22794;SDS011;11564;50.920;11.612;2023-01-20T08:11:43;7.77;;;6.97;;
22794;SDS011;11564;50.920;11.612;2023-01-20T08:14:08;9.87;;;7.43;;
22794;SDS011;11564;50.920;11.612;2023-01-20T08:16:34;12.63;;;7.40;;
22794;SDS011;11564;50.920;11.612;2023-01-20T08:18:59;11.17;;;7.73;;
22794;SDS011;11564;50.920;11.612;2023-01-20T08:21:26;15.37;;;9.87;;
22794;SDS011;11564;50.920;11.612;2023-01-20T08:23:54;9.30;;;7.50;;
22794;SDS011;11564;50.920;11.612;2023-01-20T08:26:20;11.00;;;8.10;;
22794;SDS011;11564;50.920;11.612;2023-01-20T08:28:48;10.20;;;7.93;;
22794;SDS011;11564;50.920;11.612;2023-01-20T08:31:15;10.57;;;8.30;;
22794;SDS011;11564;50.920;11.612;2023-01-20T08:33:44;9.70;;;7.43;;
22794;SDS011;11564;50.920;11.612;2023-01-20T08:36:14;15.60;;;8.83;;
22794;SDS011;11564;50.920;11.612;2023-01-20T08:38:41;9.10;;;7.20;;
22794;SDS011;11564;50.920;11.612;2023-01-20T08:41:09;10.67;;;7.83;;
22794;SDS011;11564;50.920;11.612;2023-01-20T08:43:40;10.27;;;7.83;;
22794;SDS011;11564;50.920;11.612;2023-01-20T08:46:08;12.13;;;7.90;;
22794;SDS011;11564;50.920;11.612;2023-01-20T08:48:36;8.63;;;7.27;;
22794;SDS011;11564;50.920;11.612;2023-01-20T08:51:03;14.00;;;8.43;;
22794;SDS011;11564;50.920;11.612;2023-01-20T08:53:31;11.30;;;7.47;;
22794;SDS011;11564;50.920;11.612;2023-01-20T08:55:57;10.97;;;7.33;;
22794;SDS011;11564;50.920;11.612;2023-01-20T08:58:25;11.57;;;8.00;;
22794;SDS011;11564;50.920;11.612;2023-01-20T09:00:51;10.33;;;7.63;;
22794;SDS011;11564;50.920;11.612;2023-01-20T09:03:17;8.47;;;7.10;;
22794;SDS011;11564;50.920;11.612;2023-01-20T09:05:43;11.17;;;8.20;;
22794;SDS011;11564;50.920;11.612;2023-01-20T09:08:08;12.23;;;8.43;;
22794;SDS011;11564;50.920;11.612;2023-01-20T09:10:34;10.17;;;8.30;;
22794;SDS011;11564;50.920;11.612;2023-01-20T09:13:00;12.17;;;8.83;;
22794;SDS011;11564;50.920;11.612;2023-01-20T09:15:25;9.37;;;7.67;;
22794;SDS011;11564;50.920;11.612;2023-01-20T09:17:51;13.73;;;7.83;;
22794;SDS011;11564;50.920;11.612;2023-01-20T09:20:17;9.13;;;7.10;;
22794;SDS011;11564;50.920;11.612;2023-01-20T09:22:43;10.47;;;8.33;;
22794;SDS011;11564;50.920;11.612;2023-01-20T09:25:08;11.83;;;8.43;;
22794;SDS011;11564;50.920;11.612;2023-01-20T09:27:35;18.67;;;11.77;;
22794;SDS011;11564;50.920;11.612;2023-01-20T09:30:01;18.93;;;10.40;;
22794;SDS011;11564;50.920;11.612;2023-01-20T09:32:27;12.93;;;8.70;;
22794;SDS011;11564;50.920;11.612;2023-01-20T09:34:53;8.90;;;7.10;;
22794;SDS011;11564;50.920;11.612;2023-01-20T09:37:18;8.90;;;6.90;;
22794;SDS011;11564;50.920;11.612;2023-01-20T09:40:18;6.90;;;5.67;;
22794;SDS011;11564;50.920;11.612;2023-01-20T09:46:37;12.30;;;6.60;;
22794;SDS011;11564;50.920;11.612;2023-01-20T09:49:23;8.23;;;5.87;;
22794;SDS011;11564;50.920;11.612;2023-01-20T09:55:18;7.60;;;5.60;;
22794;SDS011;11564;50.920;11.612;2023-01-20T10:01:05;8.63;;;6.33;;
22794;SDS011;11564;50.920;11.612;2023-01-20T10:12:14;10.30;;;6.53;;
22794;SDS011;11564;50.920;11.612;2023-01-20T10:14:45;13.30;;;8.17;;
22794;SDS011;11564;50.920;11.612;2023-01-20T10:17:22;13.60;;;9.30;;
22794;SDS011;11564;50.920;11.612;2023-01-20T10:19:57;12.13;;;9.10;;
22794;SDS011;11564;50.920;11.612;2023-01-20T10:22:33;10.87;;;7.90;;
22794;SDS011;11564;50.920;11.612;2023-01-20T10:25:11;10.53;;;7.83;;
22794;SDS011;11564;50.920;11.612;2023-01-20T10:28:21;7.90;;;6.93;;
22794;SDS011;11564;50.920;11.612;2023-01-20T10:30:52;15.23;;;8.63;;
22794;SDS011;11564;50.920;11.612;2023-01-20T10:33:25;15.40;;;10.90;;
22794;SDS011;11564;50.920;11.612;2023-01-20T10:35:56;11.30;;;8.50;;
22794;SDS011;11564;50.920;11.612;2023-01-20T10:38:33;11.57;;;8.77;;
22794;SDS011;11564;50.920;11.612;2023-01-20T10:41:31;11.77;;;9.60;;
22794;SDS011;11564;50.920;11.612;2023-01-20T10:44:11;12.93;;;9.83;;
22794;SDS011;11564;50.920;11.612;2023-01-20T10:49:36;25.53;;;12.97;;
22794;SDS011;11564;50.920;11.612;2023-01-20T10:54:55;14.87;;;9.07;;
22794;SDS011;11564;50.920;11.612;2023-01-20T10:57:30;12.77;;;10.10;;
22794;SDS011;11564;50.920;11.612;2023-01-20T10:59:59;13.53;;;9.27;;
22794;SDS011;11564;50.920;11.612;2023-01-20T11:02:32;14.07;;;10.50;;
22794;SDS011;11564;50.920;11.612;2023-01-20T11:05:02;20.03;;;10.93;;
22794;SDS011;11564;50.920;11.612;2023-01-20T11:07:40;16.53;;;10.17;;
22794;SDS011;11564;50.920;11.612;2023-01-20T11:10:15;12.80;;;8.50;;
22794;SDS011;11564;50.920;11.612;2023-01-20T11:12:42;9.10;;;7.20;;
22794;SDS011;11564;50.920;11.612;2023-01-20T11:15:20;12.70;;;7.80;;
22794;SDS011;11564;50.920;11.612;2023-01-20T11:20:41;10.53;;;7.30;;
22794;SDS011;11564;50.920;11.612;2023-01-20T11:23:18;17.00;;;10.33;;
22794;SDS011;11564;50.920;11.612;2023-01-20T11:25:57;17.97;;;11.53;;
22794;SDS011;11564;50.920;11.612;2023-01-20T11:28:25;14.50;;;10.77;;
22794;SDS011;11564;50.920;11.612;2023-01-20T11:30:56;11.33;;;9.70;;
22794;SDS011;11564;50.920;11.612;2023-01-20T11:33:23;17.93;;;10.17;;
22794;SDS011;11564;50.920;11.612;2023-01-20T11:36:02;17.33;;;10.80;;
22794;SDS011;11564;50.920;11.612;2023-01-20T11:38:44;13.43;;;10.23;;
22794;SDS011;11564;50.920;11.612;2023-01-20T11:43:54;17.23;;;11.60;;
22794;SDS011;11564;50.920;11.612;2023-01-20T11:46:28;13.90;;;10.27;;
22794;SDS011;11564;50.920;11.612;2023-01-20T11:51:47;13.03;;;8.80;;
22794;SDS011;11564;50.920;11.612;2023-01-20T11:54:21;10.43;;;8.97;;
22794;SDS011;11564;50.920;11.612;2023-01-20T11:57:02;12.90;;;9.40;;
22794;SDS011;11564;50.920;11.612;2023-01-20T11:59:33;11.17;;;6.60;;
22794;SDS011;11564;50.920;11.612;2023-01-20T12:02:00;10.37;;;6.90;;
22794;SDS011;11564;50.920;11.612;2023-01-20T12:07:26;9.03;;;7.40;;
22794;SDS011;11564;50.920;11.612;2023-01-20T12:10:02;11.63;;;7.43;;
22794;SDS011;11564;50.920;11.612;2023-01-20T12:15:20;12.23;;;8.30;;
22794;SDS011;11564;50.920;11.612;2023-01-20T12:20:27;11.70;;;8.00;;
22794;SDS011;11564;50.920;11.612;2023-01-20T12:26:01;11.13;;;7.60;;
22794;SDS011;11564;50.920;11.612;2023-01-20T12:28:39;7.87;;;6.80;;
22794;SDS011;11564;50.920;11.612;2023-01-20T12:31:19;7.10;;;6.40;;
22794;SDS011;11564;50.920;11.612;2023-01-20T12:33:54;12.40;;;6.53;;
22794;SDS011;11564;50.920;11.612;2023-01-20T12:47:21;13.83;;;7.70;;
22794;SDS011;11564;50.920;11.612;2023-01-20T12:56:03;14.30;;;7.73;;
22794;SDS011;11564;50.920;11.612;2023-01-20T13:04:04;8.83;;;6.10;;
22794;SDS011;11564;50.920;11.612;2023-01-20T13:15:13;7.40;;;5.90;;
22794;SDS011;11564;50.920;11.612;2023-01-20T13:17:43;11.27;;;6.30;;
22794;SDS011;11564;50.920;11.612;2023-01-20T13:20:31;10.00;;;7.30;;
22794;SDS011;11564;50.920;11.612;2023-01-20T13:23:00;11.70;;;8.57;;
22794;SDS011;11564;50.920;11.612;2023-01-20T13:25:28;15.83;;;7.77;;
22794;SDS011;11564;50.920;11.612;2023-01-20T13:27:55;13.57;;;7.00;;
22794;SDS011;11564;50.920;11.612;2023-01-20T13:33:28;7.17;;;5.50;;
22794;SDS011;11564;50.920;11.612;2023-01-20T13:35:58;5.77;;;5.20;;
22794;SDS011;11564;50.920;11.612;2023-01-20T13:38:36;8.00;;;4.93;;
22794;SDS011;11564;50.920;11.612;2023-01-20T13:41:03;8.87;;;5.80;;
22794;SDS011;11564;50.920;11.612;2023-01-20T13:43:44;8.37;;;5.10;;
22794;SDS011;11564;50.920;11.612;2023-01-20T13:51:44;10.93;;;6.77;;
22794;SDS011;11564;50.920;11.612;2023-01-20T13:59:47;8.10;;;5.77;;
22794;SDS011;11564;50.920;11.612;2023-01-20T14:02:16;8.43;;;5.17;;
22794;SDS011;11564;50.920;11.612;2023-01-20T14:04:43;14.33;;;5.70;;
22794;SDS011;11564;50.920;11.612;2023-01-20T14:07:20;7.43;;;5.00;;
22794;SDS011;11564;50.920;11.612;2023-01-20T14:09:53;10.50;;;6.17;;
22794;SDS011;11564;50.920;11.612;2023-01-20T14:12:21;10.57;;;6.73;;
22794;SDS011;11564;50.920;11.612;2023-01-20T14:14:47;13.00;;;7.77;;
22794;SDS011;11564;50.920;11.612;2023-01-20T14:17:16;8.10;;;6.53;;
22794;SDS011;11564;50.920;11.612;2023-01-20T14:19:48;7.33;;;5.83;;
22794;SDS011;11564;50.920;11.612;2023-01-20T14:22:17;5.93;;;4.73;;
22794;SDS011;11564;50.920;11.612;2023-01-20T14:24:49;10.47;;;6.00;;
22794;SDS011;11564;50.920;11.612;2023-01-20T14:27:24;7.37;;;5.80;;
22794;SDS011;11564;50.920;11.612;2023-01-20T14:29:54;6.70;;;5.10;;
22794;SDS011;11564;50.920;11.612;2023-01-20T14:32:22;8.80;;;5.60;;
22794;SDS011;11564;50.920;11.612;2023-01-20T14:34:51;9.53;;;6.07;;
22794;SDS011;11564;50.920;11.612;2023-01-20T14:37:26;9.93;;;6.40;;
22794;SDS011;11564;50.920;11.612;2023-01-20T14:39:53;7.97;;;5.70;;
22794;SDS011;11564;50.920;11.612;2023-01-20T14:42:21;7.43;;;5.40;;
22794;SDS011;11564;50.920;11.612;2023-01-20T14:44:50;6.57;;;5.27;;
22794;SDS011;11564;50.920;11.612;2023-01-20T14:47:18;6.50;;;5.83;;
22794;SDS011;11564;50.920;11.612;2023-01-20T14:49:48;6.20;;;5.60;;
22794;SDS011;11564;50.920;11.612;2023-01-20T14:52:20;6.50;;;5.07;;
22794;SDS011;11564;50.920;11.612;2023-01-20T14:54:50;8.07;;;5.30;;
22794;SDS011;11564;50.920;11.612;2023-01-20T15:02:49;9.93;;;6.93;;
22794;SDS011;11564;50.920;11.612;2023-01-20T15:05:27;11.53;;;8.00;;
22794;SDS011;11564;50.920;11.612;2023-01-20T15:08:04;9.30;;;7.77;;
22794;SDS011;11564;50.920;11.612;2023-01-20T15:10:40;11.63;;;6.53;;
22794;SDS011;11564;50.920;11.612;2023-01-20T15:13:22;14.10;;;8.03;;
22794;SDS011;11564;50.920;11.612;2023-01-20T15:15:49;8.90;;;6.60;;
22794;SDS011;11564;50.920;11.612;2023-01-20T15:18:16;7.77;;;6.93;;
22794;SDS011;11564;50.920;11.612;2023-01-20T15:20:47;10.60;;;7.43;;
22794;SDS011;11564;50.920;11.612;2023-01-20T15:28:41;11.60;;;8.00;;
